Date,TemperatureHighF,TemperatureAvgF,TemperatureLowF,DewpointHighF,DewpointAvgF,DewpointLowF,HumidityHigh,HumidityAvg,HumidityLow,PressureMaxIn,PressureMinIn,WindSpeedMaxMPH,WindSpeedAvgMPH,GustSpeedMaxMPH,PrecipitationSumIn
2013-1-1,79,72,64,64,61,58,85,68,57,30.20,30.05,8,2,15,0.00
2013-1-2,83,71,60,68,63,57,92,79,51,30.08,29.98,4,0,8,0.00
2013-1-3,81,72,66,69,66,64,92,82,67,30.12,30.02,7,1,9,0.00
2013-1-4,83,72,64,72,67,62,94,85,66,30.22,30.10,7,1,10,0.00
2013-1-5,74,69,65,70,66,62,94,91,82,30.24,30.15,4,1,7,0.09
2013-1-6,80,72,64,72,68,62,95,86,74,30.18,30.05,9,1,14,0.00
2013-1-7,73,69,66,70,67,65,95,93,89,30.16,30.06,4,0,5,0.66
2013-1-8,80,75,70,73,70,68,94,86,78,30.20,30.07,11,3,14,0.10
2013-1-9,80,77,74,73,71,69,90,81,75,30.27,30.15,12,5,17,0.00
2013-1-10,79,76,74,69,67,64,81,74,62,30.29,30.18,13,6,21,0.00
2013-1-11,78,75,73,70,68,66,82,77,72,30.25,30.15,13,5,17,0.00
2013-1-12,79,74,68,69,67,64,88,77,69,30.17,30.08,8,3,14,0.00
2013-1-13,80,75,72,69,66,63,81,73,65,30.12,30.07,9,4,15,0.00
2013-1-14,79,74,68,67,65,62,85,73,64,30.16,30.11,8,2,13,0.00
2013-1-15,78,74,66,68,66,62,87,77,67,30.13,30.04,11,3,13,0.00
2013-1-16,80,72,63,70,66,60,94,82,68,30.10,30.01,7,2,12,0.03
2013-1-17,81,71,60,73,66,54,95,84,72,30.08,29.96,7,1,12,0.10
2013-1-18,71,64,52,60,54,45,80,70,61,30.23,30.08,6,2,13,0.00
2013-1-19,72,69,66,67,64,60,94,85,70,30.21,30.10,5,1,9,0.17
2013-1-20,79,70,63,70,66,61,95,86,69,30.14,30.01,7,1,9,0.11
2013-1-21,79,70,64,70,66,63,95,88,72,30.06,29.95,7,1,10,0.07
2013-1-22,75,68,61,63,59,53,93,75,59,30.21,30.00,8,2,15,0.00
2013-1-23,74,67,60,59,55,52,82,67,52,30.29,30.20,7,2,14,0.00
2013-1-24,77,65,58,55,52,43,85,66,38,30.29,30.19,6,1,14,0.00
2013-1-25,75,65,57,60,55,50,85,71,53,30.29,30.17,5,1,10,0.00
2013-1-26,78,67,57,60,57,52,90,73,48,30.25,30.16,5,1,13,0.00
2013-1-27,76,69,60,64,60,57,90,73,56,30.28,30.19,8,2,16,0.00
2013-1-28,78,74,71,67,64,61,81,71,62,30.31,30.22,12,5,15,0.00
2013-1-29,78,74,72,69,67,65,85,78,73,30.22,30.12,8,2,15,0.00
2013-1-30,78,74,70,68,66,63,88,76,66,30.11,29.96,12,3,19,0.00
2013-1-31,72,66,58,70,58,41,93,77,51,30.18,29.94,4,1,12,0.01
2013-2-1,72,62,53,56,49,38,74,62,53,30.27,30.16,12,2,14,0.00
2013-2-2,71,62,54,54,49,38,87,63,50,30.26,30.12,8,1,13,0.00
2013-2-3,74,62,54,53,49,40,91,65,29,30.17,30.07,5,1,10,0.00
2013-2-4,75,61,48,55,48,41,86,65,33,30.14,30.03,5,1,12,0.00
2013-2-5,76,65,53,63,58,50,93,77,54,30.09,30.00,9,1,10,0.00
2013-2-6,78,70,59,67,62,57,94,78,62,30.10,30.02,7,2,11,0.00
2013-2-7,79,73,69,67,64,62,83,73,62,30.07,29.93,8,2,12,0.00
2013-2-8,83,74,67,70,66,63,91,78,58,30.02,29.90,5,1,9,0.00
2013-2-9,77,70,64,67,63,60,93,79,65,30.17,30.01,11,4,15,0.00
2013-2-10,73,71,69,63,62,59,76,71,68,30.26,30.14,14,6,18,0.00
2013-2-11,78,73,69,66,63,61,80,73,66,30.21,30.10,9,2,13,0.00
2013-2-12,83,73,63,70,66,60,92,79,58,30.11,29.96,8,1,11,0.00
2013-2-13,85,76,67,73,69,64,94,81,66,30.00,29.88,9,2,16,0.00
2013-2-14,76,70,62,71,66,61,94,90,81,30.00,29.85,8,2,17,1.30
2013-2-15,72,66,62,67,64,61,95,92,80,30.02,29.93,5,1,9,0.28
2013-2-16,74,65,54,64,56,44,94,76,46,30.08,29.88,6,2,14,0.00
2013-2-17,59,51,44,44,29,18,72,46,24,30.31,30.08,9,2,17,0.00
2013-2-18,68,59,46,57,45,32,70,62,51,30.33,30.21,13,4,16,0.00
2013-2-19,77,71,60,66,61,53,87,71,60,30.20,30.08,11,2,14,0.01
2013-2-20,76,70,62,67,64,60,94,82,60,30.11,30.01,9,1,13,0.02
2013-2-21,80,72,63,69,65,61,94,81,66,30.09,29.99,8,2,14,0.00
2013-2-22,80,75,72,71,69,66,88,81,73,30.09,30.01,10,4,16,0.00
2013-2-23,82,76,71,73,70,68,92,82,72,30.04,29.91,11,3,15,0.33
2013-2-24,88,76,70,74,70,68,95,83,55,29.99,29.89,7,1,10,0.00
2013-2-25,83,75,68,74,70,66,93,84,72,29.91,29.80,10,2,16,0.00
2013-2-26,87,79,74,73,71,68,89,77,57,29.88,29.79,11,3,15,0.01
2013-2-27,77,71,63,73,65,60,94,83,63,29.96,29.85,4,1,8,0.50
2013-2-28,71,64,59,63,54,49,94,72,47,30.00,29.90,4,1,8,0.00
2013-3-1,66,62,58,57,51,48,83,69,58,29.99,29.90,4,1,8,0.00
2013-3-2,67,58,50,49,42,36,75,58,41,30.04,29.95,7,2,13,0.00
2013-3-3,62,54,49,47,42,38,86,64,45,30.15,29.97,6,1,12,0.00
2013-3-4,66,53,42,44,37,31,81,57,28,30.22,30.13,10,2,15,0.00
2013-3-5,74,62,47,57,52,44,91,72,53,30.19,30.09,7,2,12,0.00
2013-3-6,78,65,53,63,52,33,92,66,31,30.10,29.94,10,2,12,0.00
2013-3-7,71,59,47,55,45,35,87,62,42,30.18,30.07,7,2,9,0.00
2013-3-8,76,62,51,53,50,43,89,68,31,30.20,30.11,9,1,11,0.00
2013-3-9,73,64,53,57,53,49,89,69,55,30.19,30.10,10,2,16,0.00
2013-3-10,73,69,66,61,56,53,74,64,55,30.15,30.07,13,5,17,0.00
2013-3-11,76,71,68,63,61,57,75,69,55,30.11,29.95,10,5,16,0.00
2013-3-12,80,74,70,70,66,62,83,75,69,30.00,29.90,11,3,14,0.00
2013-3-13,75,66,57,65,55,44,89,69,40,30.12,29.97,8,2,13,0.00
2013-3-14,72,61,54,52,46,38,86,62,33,30.20,30.08,8,2,15,0.00
2013-3-15,71,62,52,54,50,44,78,66,50,30.25,30.15,5,1,14,0.00
2013-3-16,73,64,53,59,53,50,93,70,50,30.20,30.09,10,2,14,0.00
2013-3-17,75,67,57,62,58,53,89,73,58,30.15,30.03,11,2,18,0.00
2013-3-18,78,71,64,70,65,60,93,81,69,30.07,29.96,8,2,17,0.27
2013-3-19,80,72,68,69,67,65,94,85,64,30.00,29.82,6,1,12,0.01
2013-3-20,82,72,64,71,65,57,95,81,56,29.97,29.80,11,1,14,0.00
2013-3-21,78,66,57,61,54,49,91,68,37,29.94,29.82,7,1,13,0.00
2013-3-22,75,67,54,69,59,51,92,77,60,30.01,29.90,9,2,16,0.01
2013-3-23,87,77,71,75,71,69,94,83,60,29.98,29.80,7,1,15,0.00
2013-3-24,90,80,73,74,71,67,93,76,53,29.88,29.68,12,3,21,0.03
2013-3-25,81,74,64,72,60,41,92,65,35,29.98,29.74,7,1,11,0.00
2013-3-26,69,61,52,43,38,33,55,44,27,30.21,29.98,6,2,12,0.00
2013-3-27,70,57,46,48,41,34,75,58,36,30.26,30.17,7,2,13,0.00
2013-3-28,71,60,50,51,45,34,77,58,31,30.27,30.18,7,1,15,0.00
2013-3-29,73,64,54,54,50,44,76,60,45,30.29,30.21,9,2,13,0.00
2013-3-30,72,67,57,59,53,49,88,63,45,30.27,30.17,9,2,15,0.00
2013-3-31,79,72,62,66,62,55,84,71,59,30.19,30.04,11,3,17,0.00
2013-4-1,89,77,68,71,66,63,89,72,44,30.05,29.93,7,2,14,0.00
2013-4-2,85,73,66,68,65,63,93,77,53,30.07,29.98,9,2,11,0.00
2013-4-3,81,76,71,70,68,66,86,77,66,30.06,29.99,10,3,17,0.00
2013-4-4,83,75,69,73,70,66,93,83,72,30.04,29.91,14,3,17,0.50
2013-4-5,72,68,64,70,66,63,93,92,86,29.98,29.82,6,1,14,0.38
2013-4-6,76,68,59,66,61,56,94,80,64,30.08,29.91,7,2,14,0.04
2013-4-7,75,73,71,65,63,61,75,70,64,30.14,30.02,11,4,15,0.00
2013-4-8,79,72,62,67,62,58,91,72,56,30.13,30.04,10,3,16,0.00
2013-4-9,78,75,72,69,67,64,85,76,68,30.15,30.04,10,4,15,0.00
2013-4-10,81,77,73,72,70,66,84,79,74,30.09,29.99,13,5,16,0.01
2013-4-11,82,78,75,73,72,70,87,82,74,30.01,29.89,11,5,18,0.00
2013-4-12,88,79,76,76,74,73,89,84,69,29.94,29.86,8,3,17,0.08
2013-4-13,84,76,72,75,72,68,92,86,73,29.96,29.87,6,1,8,0.01
2013-4-14,84,78,72,75,73,69,94,84,68,29.96,29.89,10,2,16,0.01
2013-4-15,86,77,71,77,72,68,94,86,70,30.05,29.92,10,2,15,0.50
2013-4-16,83,77,70,76,72,69,96,86,74,30.11,30.02,9,3,15,0.00
2013-4-17,81,77,73,71,69,67,86,76,66,30.10,30.02,9,3,15,0.00
2013-4-18,83,79,75,74,71,68,83,77,70,30.06,29.97,11,4,15,0.00
2013-4-19,85,81,77,75,73,70,85,77,64,30.04,29.96,11,4,21,0.00
2013-4-20,88,78,72,78,73,69,94,85,63,30.07,29.95,8,2,12,0.44
2013-4-21,81,76,72,74,72,69,93,84,74,30.09,29.97,10,2,17,0.02
2013-4-22,83,74,70,71,70,67,93,85,67,30.04,29.91,8,1,11,0.40
2013-4-23,81,74,67,70,66,61,93,76,61,30.08,29.95,10,3,19,0.01
2013-4-24,80,76,72,67,64,61,75,67,60,30.13,30.03,10,3,14,0.00
2013-4-25,80,75,72,65,63,61,75,65,54,30.19,30.07,9,3,15,0.00
2013-4-26,80,75,67,67,65,61,84,71,60,30.21,30.11,12,3,16,0.00
2013-4-27,79,76,72,67,65,62,75,68,60,30.20,30.08,12,4,21,0.00
2013-4-28,80,76,73,67,64,63,72,67,60,30.11,29.99,12,5,16,0.00
2013-4-29,81,77,74,71,68,64,82,74,64,30.03,29.93,10,4,16,0.00
2013-4-30,84,76,71,73,70,68,90,81,65,29.99,29.92,7,1,12,0.06
2013-5-1,82,74,70,73,70,67,94,87,71,30.00,29.92,11,1,13,0.14
2013-5-2,79,71,66,73,69,64,96,92,82,29.93,29.80,10,3,21,5.61
2013-5-3,88,75,68,72,69,67,95,83,54,29.81,29.67,9,1,14,0.30
2013-5-4,89,77,67,72,68,65,95,77,50,29.79,29.68,5,1,8,0.01
2013-5-5,84,74,65,68,62,54,92,69,38,29.92,29.75,7,1,8,0.00
2013-5-6,86,72,58,64,60,53,92,69,45,30.01,29.91,6,1,9,0.00
2013-5-7,86,74,62,67,61,57,86,67,42,30.05,29.97,4,1,9,0.00
2013-5-8,87,74,61,66,62,56,92,68,36,30.13,30.03,5,1,10,0.00
2013-5-9,84,76,65,73,68,60,87,75,55,30.13,30.05,10,2,14,0.00
2013-5-10,87,80,72,74,72,69,91,78,57,30.12,30.01,9,2,14,0.01
2013-5-11,87,79,73,77,73,70,94,82,69,30.07,29.97,11,2,15,0.03
2013-5-12,90,78,71,76,72,68,95,82,57,30.05,29.93,7,1,16,1.35
2013-5-13,90,78,70,74,69,63,96,77,47,30.08,29.98,4,1,9,0.00
2013-5-14,79,75,71,66,61,57,79,62,50,30.17,30.06,8,2,15,0.00
2013-5-15,79,75,69,66,62,57,76,63,54,30.18,30.09,10,4,15,0.00
2013-5-16,80,75,68,66,63,59,80,65,55,30.11,30.04,9,3,13,0.00
2013-5-17,83,77,69,73,69,64,89,78,65,30.09,30.01,10,2,15,0.00
2013-5-18,83,78,73,75,72,70,94,83,72,30.10,30.03,8,2,14,0.07
2013-5-19,84,78,72,72,70,67,89,75,61,30.09,30.00,9,3,12,0.00
2013-5-20,80,75,68,74,71,66,95,89,77,30.08,29.97,7,2,15,5.09
2013-5-21,81,75,69,75,71,68,95,86,70,30.04,29.93,8,2,14,0.18
2013-5-22,83,75,70,75,70,-100,93,87,76,29.96,29.89,8,-10,13,1.32
2013-5-23,94,82,73,76,73,69,95,77,45,30.00,29.90,7,1,9,0.00
2013-5-24,92,82,75,76,74,68,93,76,56,30.04,29.93,8,1,12,0.00
2013-5-25,83,79,73,74,68,65,90,71,56,30.15,30.03,13,3,16,0.09
2013-5-26,82,78,72,69,66,59,76,66,58,30.16,30.09,10,3,15,0.00
2013-5-27,82,78,72,72,70,65,91,76,67,30.14,30.05,11,5,16,0.15
2013-5-28,81,78,74,74,72,69,91,84,75,30.10,30.03,13,6,17,0.17
2013-5-29,80,75,71,74,71,67,94,87,73,30.08,30.02,13,5,20,2.06
2013-5-30,82,78,72,74,72,69,89,81,74,30.06,29.99,15,8,21,0.04
2013-5-31,82,78,74,75,73,71,91,84,76,30.05,29.99,13,6,18,0.14
2013-6-1,83,77,74,76,74,72,94,90,79,30.01,29.95,7,1,13,0.68
2013-6-2,89,79,72,78,73,70,95,83,67,29.99,29.91,8,1,10,0.00
2013-6-3,86,78,73,77,74,70,93,85,71,30.02,29.90,8,1,10,0.75
2013-6-4,83,78,73,77,74,71,94,87,70,30.04,29.94,5,1,8,0.05
2013-6-5,82,80,79,77,76,74,89,85,82,30.01,29.89,7,3,10,0.07
2013-6-6,87,80,73,79,75,71,94,87,75,29.90,29.77,12,3,20,1.02
2013-6-7,94,78,73,77,73,71,94,86,55,29.98,29.83,6,1,11,0.34
2013-6-8,85,78,74,79,75,72,95,90,77,30.09,29.95,6,1,11,0.77
2013-6-9,86,82,79,77,75,74,87,80,71,30.10,30.03,14,4,15,0.04
2013-6-10,85,82,80,77,76,74,85,81,71,30.08,30.00,10,4,13,0.00
2013-6-11,86,82,78,78,76,74,91,83,69,30.08,30.00,7,2,11,0.35
2013-6-12,87,80,76,79,76,72,93,87,74,30.07,30.01,5,0,10,0.04
2013-6-13,87,79,74,79,74,71,95,85,68,30.04,29.93,6,0,8,0.31
2013-6-14,95,82,73,77,73,70,93,76,50,29.96,29.87,7,1,12,0.00
2013-6-15,93,82,74,77,74,72,93,78,55,30.05,29.91,6,1,11,0.00
2013-6-16,88,82,75,78,75,72,92,79,64,30.08,30.01,8,2,12,0.00
2013-6-17,88,83,77,78,76,73,91,77,67,30.07,30.00,8,2,12,0.00
2013-6-18,90,83,77,77,75,74,92,77,63,30.06,29.98,9,2,11,0.00
2013-6-19,90,83,78,78,76,74,91,78,62,30.04,29.97,8,2,11,0.00
2013-6-20,90,81,72,77,73,68,91,77,62,30.08,30.01,7,1,12,0.36
2013-6-21,89,83,77,76,74,72,86,75,59,30.10,30.02,7,2,12,0.00
2013-6-22,87,83,78,75,74,72,87,74,65,30.09,30.03,10,3,13,0.00
2013-6-23,87,83,79,76,74,72,83,75,65,30.12,30.04,10,4,16,0.00
2013-6-24,86,83,78,76,74,72,85,74,69,30.15,30.07,13,4,16,0.01
2013-6-25,87,83,80,77,75,73,84,77,68,30.12,30.03,11,4,14,0.00
2013-6-26,89,82,77,77,75,73,91,79,64,30.07,30.00,9,2,15,0.27
2013-6-27,86,81,76,77,75,71,89,82,74,30.05,29.95,8,1,10,0.66
2013-6-28,90,81,74,78,74,70,92,80,63,29.99,29.85,8,1,12,0.22
2013-6-29,93,80,74,78,75,72,94,84,56,29.91,29.81,8,1,11,0.39
2013-6-30,91,80,74,78,74,71,94,85,60,29.94,29.84,11,1,14,0.80
2013-7-1,88,81,75,78,75,70,94,83,71,30.03,29.91,8,2,17,0.11
2013-7-2,87,82,77,79,76,73,91,82,73,30.10,29.97,10,2,13,0.01
2013-7-3,88,82,78,78,76,73,90,82,71,30.12,30.04,11,3,18,0.27
2013-7-4,87,83,78,78,75,72,85,77,68,30.14,30.06,13,4,18,0.02
2013-7-5,84,80,74,77,75,71,92,84,78,30.12,30.04,9,4,16,0.49
2013-7-6,85,82,79,76,75,73,85,79,70,30.11,30.02,14,5,17,0.05
2013-7-7,86,82,79,77,75,74,87,78,71,30.09,30.02,12,4,16,0.06
2013-7-8,86,82,79,76,74,73,82,76,65,30.13,30.06,10,3,14,0.00
2013-7-9,85,80,75,75,73,71,90,78,64,30.13,30.04,9,2,14,0.01
2013-7-10,84,78,71,75,73,68,94,85,75,30.08,29.99,7,2,10,0.57
2013-7-11,88,82,76,78,75,73,92,79,66,30.03,29.94,8,1,14,0.00
2013-7-12,91,80,73,78,74,70,92,83,59,29.95,29.88,6,1,11,0.57
2013-7-13,87,76,72,77,72,70,94,90,69,30.02,29.91,4,0,10,0.89
2013-7-14,87,78,72,76,73,70,94,85,63,30.08,29.98,7,1,14,0.11
2013-7-15,86,79,72,77,73,70,94,82,65,30.08,30.00,8,2,12,0.11
2013-7-16,82,78,72,74,72,69,93,82,69,30.14,30.04,14,4,17,0.50
2013-7-17,80,78,74,74,73,70,93,85,76,30.14,30.03,7,2,10,0.20
2013-7-18,83,76,73,77,73,70,94,89,77,30.11,30.05,7,1,10,0.50
2013-7-19,85,80,73,78,76,72,95,86,77,30.12,30.04,11,2,14,0.01
2013-7-20,88,82,75,80,77,73,93,85,71,30.10,30.02,8,2,12,0.49
2013-7-21,88,80,75,79,76,72,95,87,74,30.14,30.03,7,1,10,0.00
2013-7-22,89,82,76,77,76,72,91,80,64,30.14,30.06,7,2,11,0.00
2013-7-23,92,83,76,79,75,73,92,77,55,30.09,29.96,7,1,10,0.00
2013-7-24,95,86,77,77,74,69,91,70,49,30.01,29.90,9,1,11,0.00
2013-7-25,95,85,75,77,75,71,91,72,55,30.00,29.90,4,1,9,0.00
2013-7-26,95,83,78,79,76,74,88,78,56,30.01,29.92,7,1,11,0.02
2013-7-27,92,80,75,78,75,72,92,85,63,29.99,29.92,6,0,12,0.40
2013-7-28,87,79,74,79,75,71,93,88,76,30.06,29.94,4,1,12,0.25
2013-7-29,87,81,75,79,76,73,93,85,72,30.12,30.01,10,2,12,0.00
2013-7-30,87,83,74,79,77,71,93,82,73,30.15,30.07,10,2,12,0.22
2013-7-31,87,84,78,78,76,73,89,78,68,30.10,30.00,11,3,13,0.00
2013-8-1,87,83,80,76,74,73,82,75,67,30.04,29.94,10,4,13,0.00
2013-8-2,94,81,76,78,74,73,93,80,52,30.04,29.91,9,1,10,0.15
2013-8-3,85,77,71,78,74,68,95,90,77,30.15,30.01,9,0,21,1.67
2013-8-4,94,80,74,81,75,72,96,85,61,30.09,29.97,9,1,14,0.06
2013-8-5,91,80,76,80,75,72,94,85,64,30.03,29.93,3,0,10,0.35
2013-8-6,90,82,75,79,76,73,94,82,69,29.97,29.89,6,1,11,0.00
2013-8-7,88,82,77,79,76,74,92,81,70,29.98,29.89,12,2,14,0.00
2013-8-8,88,84,82,78,76,74,83,76,66,30.01,29.92,10,4,15,0.02
2013-8-9,87,82,79,78,75,72,89,78,69,30.06,29.95,9,3,14,0.23
2013-8-10,89,84,81,78,76,75,84,77,68,30.11,30.03,10,4,12,0.00
2013-8-11,88,84,81,79,77,75,82,78,71,30.13,30.05,9,3,12,0.00
2013-8-12,88,83,76,78,75,73,91,78,67,30.10,30.00,8,2,12,0.00
2013-8-13,89,84,80,78,76,73,87,76,62,30.03,29.95,11,2,12,0.00
2013-8-14,89,83,76,79,75,74,93,78,65,30.01,29.92,8,2,12,0.00
2013-8-15,86,81,74,78,76,72,94,84,71,30.05,29.95,7,1,10,0.65
2013-8-16,89,84,78,79,77,74,92,81,68,30.04,29.97,9,2,11,0.00
2013-8-17,88,84,82,80,78,76,86,80,73,30.07,29.99,10,3,12,0.04
2013-8-18,88,84,81,79,77,75,83,79,70,30.07,29.98,9,4,14,0.01
2013-8-19,88,84,82,79,77,76,86,79,71,30.06,29.96,10,3,14,0.00
2013-8-20,88,83,77,79,76,73,91,80,71,30.05,29.97,9,3,15,0.12
2013-8-21,87,83,79,80,77,75,92,83,76,30.07,29.99,12,4,16,0.14
2013-8-22,88,84,79,79,77,74,87,79,74,30.05,29.95,10,4,16,0.01
2013-8-23,88,83,80,79,76,75,86,80,73,30.00,29.93,8,2,13,0.00
2013-8-24,89,83,76,80,76,72,92,79,65,30.10,29.97,9,2,12,0.06
2013-8-25,85,80,76,77,75,72,93,83,72,30.14,30.02,8,1,10,0.00
2013-8-26,86,80,73,79,74,70,93,84,69,30.11,30.01,7,1,13,0.38
2013-8-27,85,78,73,78,73,71,95,85,70,30.04,29.96,6,1,9,0.03
2013-8-28,86,80,74,77,74,72,94,84,66,30.02,29.94,8,1,11,0.03
2013-8-29,88,81,74,78,75,70,91,80,69,30.02,29.92,9,2,11,0.00
2013-8-30,91,83,75,79,75,71,93,76,54,30.00,29.89,9,1,11,0.00
2013-8-31,91,81,74,78,75,71,92,81,61,29.97,29.91,8,1,9,0.07
2013-9-1,87,80,74,78,75,72,95,86,69,30.00,29.92,4,0,8,0.01
2013-9-2,91,78,72,80,74,70,95,88,60,30.02,29.93,7,1,12,2.13
2013-9-3,89,80,72,80,75,70,96,84,66,30.01,29.92,7,1,9,0.01
2013-9-4,86,82,78,78,77,75,92,84,78,30.06,29.94,5,1,9,0.00
2013-9-5,88,84,80,79,77,76,88,80,68,30.06,29.98,7,2,13,0.00
2013-9-6,88,83,78,79,77,75,93,81,64,30.03,29.92,7,2,12,0.09
2013-9-7,86,78,74,78,74,71,93,88,74,29.98,29.90,5,0,11,0.18
2013-9-8,87,79,73,79,74,71,95,87,68,29.94,29.85,7,0,10,0.47
2013-9-9,87,80,73,80,74,71,95,82,68,29.99,29.88,8,2,14,0.24
2013-9-10,86,82,78,78,75,73,86,79,72,30.03,29.94,15,3,15,0.01
2013-9-11,82,80,73,78,75,71,93,85,80,30.05,29.96,4,1,11,0.45
2013-9-12,84,80,76,77,76,73,93,87,77,30.00,29.88,4,1,6,0.08
2013-9-13,89,81,74,80,75,72,96,82,62,29.89,29.79,5,1,10,0.11
2013-9-14,90,83,75,80,75,73,94,78,62,29.96,29.81,9,2,10,0.00
2013-9-15,86,81,76,79,76,72,92,84,77,30.04,29.92,8,2,13,0.01
2013-9-16,82,80,79,77,76,75,88,86,84,30.00,29.95,6,2,11,0.57
2013-9-17,81,79,75,76,75,72,93,87,82,30.03,29.91,7,2,11,0.14
2013-9-18,85,79,74,77,75,72,93,87,75,30.00,29.90,5,1,11,0.21
2013-9-19,86,80,73,79,74,71,95,84,73,29.99,29.91,9,2,14,0.01
2013-9-20,86,81,74,74,71,69,87,73,60,29.98,29.89,9,2,14,0.02
2013-9-21,85,80,72,75,72,69,92,78,69,29.91,29.77,8,1,10,0.00
2013-9-22,91,83,76,79,75,73,93,79,61,29.86,29.75,5,1,9,0.00
2013-9-23,88,81,77,79,76,74,93,87,70,29.96,29.84,4,0,8,0.22
2013-9-24,93,80,74,82,76,72,96,87,59,29.96,29.86,6,1,11,0.88
2013-9-25,91,81,72,82,74,70,94,82,57,29.90,29.79,5,1,12,0.02
2013-9-26,94,81,75,80,76,73,93,86,64,29.85,29.78,5,1,14,0.15
2013-9-27,90,80,73,76,74,71,95,80,55,29.91,29.80,5,1,10,0.04
2013-9-28,85,79,73,77,73,70,94,82,68,29.95,29.86,10,2,12,0.15
2013-9-29,85,80,71,74,71,69,92,75,62,29.95,29.87,8,2,12,0.00
2013-9-30,86,80,72,76,71,69,93,77,62,29.99,29.89,8,2,11,0.00
2013-10-1,85,81,76,76,71,-100,86,74,66,30.02,29.94,10,-8,14,0.00
2013-10-2,85,82,80,75,73,72,82,75,67,30.03,29.96,12,4,15,0.00
2013-10-3,85,81,77,76,73,72,85,77,67,30.04,29.94,8,2,12,0.00
2013-10-4,85,80,75,75,72,70,90,76,64,30.05,29.97,8,2,12,0.00
2013-10-5,86,79,71,75,72,68,93,77,62,30.02,29.92,7,1,13,0.00
2013-10-6,87,80,74,77,73,71,93,78,63,29.96,29.86,7,1,12,0.00
2013-10-7,93,80,73,76,73,70,94,80,52,29.89,29.80,6,1,11,0.02
2013-10-8,92,81,75,79,75,70,95,81,60,29.92,29.84,3,0,9,0.02
2013-10-9,85,78,72,76,73,69,92,84,72,29.98,29.89,5,1,10,0.00
2013-10-10,85,79,71,75,72,69,93,79,64,30.00,29.93,9,2,13,0.01
2013-10-11,85,77,69,72,68,66,93,75,59,30.00,29.93,8,1,12,0.01
2013-10-12,86,77,68,72,68,65,93,76,57,30.01,29.94,4,1,10,0.00
2013-10-13,85,77,70,73,67,64,93,74,50,30.04,29.95,10,1,11,0.00
2013-10-14,84,77,69,72,68,66,92,76,60,30.00,29.90,6,1,12,0.00
2013-10-15,84,77,70,73,70,68,93,79,62,29.95,29.86,7,1,10,0.00
2013-10-16,84,77,71,73,70,67,92,79,63,29.94,29.88,7,1,10,0.00
2013-10-17,84,78,70,74,71,68,94,80,65,29.96,29.88,8,1,10,0.00
2013-10-18,86,79,71,75,72,69,93,79,66,29.98,29.89,8,2,9,0.00
2013-10-19,88,81,73,75,73,70,92,77,58,29.95,29.87,8,2,12,0.00
2013-10-20,89,81,75,78,75,72,92,83,64,29.95,29.86,6,1,10,0.00
2013-10-21,88,82,75,78,75,72,93,82,70,29.99,29.90,9,1,11,0.01
2013-10-22,90,85,79,79,77,74,87,76,62,29.95,29.82,5,1,11,0.00
2013-10-23,90,80,75,76,73,69,92,79,62,29.94,29.81,5,0,10,0.00
2013-10-24,80,76,72,69,65,62,80,70,60,30.08,29.93,7,1,12,0.00
2013-10-25,81,76,68,67,64,63,84,68,55,30.14,30.06,9,2,13,0.00
2013-10-26,82,74,67,66,64,61,87,70,55,30.14,30.04,6,1,10,0.00
2013-10-27,81,73,64,67,63,60,86,71,56,30.08,30.01,8,1,13,0.00
2013-10-28,82,75,65,68,65,63,92,72,54,30.13,30.04,8,1,11,0.00
2013-10-29,83,77,67,71,67,64,91,73,60,30.16,30.08,15,3,15,0.00
2013-10-30,82,78,75,69,68,65,75,69,61,30.18,30.07,11,4,16,0.00
2013-10-31,83,80,77,74,71,66,83,75,68,30.10,29.99,10,4,15,0.00
2013-11-1,85,80,76,75,73,71,85,78,69,30.00,29.88,9,2,13,0.00
2013-11-2,90,79,70,74,70,63,94,75,49,29.93,29.79,8,1,10,0.00
2013-11-3,81,74,68,66,63,61,82,69,57,30.02,29.88,11,2,16,0.00
2013-11-4,79,76,73,69,64,58,80,67,53,30.07,30.00,15,4,19,0.02
2013-11-5,81,78,77,71,69,66,78,72,65,30.08,30.01,13,7,20,0.02
2013-11-6,82,78,70,70,69,67,88,74,64,30.05,29.99,11,4,17,0.00
2013-11-7,85,76,69,73,69,66,93,81,61,30.01,29.91,5,1,7,0.00
2013-11-8,84,76,70,73,70,67,93,81,64,30.03,29.93,10,2,16,0.35
2013-11-9,78,76,73,72,71,70,93,84,79,30.10,30.00,11,5,21,0.20
2013-11-10,82,78,76,73,70,68,84,77,71,30.11,30.04,8,3,12,0.21
2013-11-11,81,77,70,72,69,66,90,76,71,30.11,30.04,10,2,13,0.00
2013-11-12,82,76,69,72,68,66,92,76,61,30.07,29.96,6,1,11,0.00
2013-11-13,76,72,69,67,63,56,87,75,63,30.20,29.98,12,3,17,0.03
2013-11-14,75,72,69,62,58,54,69,62,56,30.23,30.13,13,6,21,0.03
2013-11-15,80,76,73,69,67,62,76,73,68,30.14,30.02,11,5,17,0.00
2013-11-16,79,77,73,74,70,68,90,80,71,30.08,30.01,9,3,15,0.07
2013-11-17,83,78,73,74,71,69,89,78,71,30.07,29.99,9,3,16,0.07
2013-11-18,82,76,71,76,71,69,95,86,73,30.01,29.91,4,0,7,0.01
2013-11-19,85,74,71,74,71,69,96,90,66,29.93,29.85,7,0,7,2.55
2013-11-20,82,75,69,74,72,68,96,88,75,30.05,29.91,5,1,8,0.30
2013-11-21,79,76,71,74,72,69,94,87,78,30.13,30.03,9,3,14,0.72
2013-11-22,80,77,75,72,70,69,85,79,73,30.15,30.07,11,5,17,0.00
2013-11-23,80,76,71,72,70,67,88,81,74,30.07,29.97,9,2,12,0.00
2013-11-24,81,73,67,70,67,64,94,82,65,30.14,29.98,9,2,17,0.28
2013-11-25,74,72,71,69,65,60,85,76,67,30.20,30.05,19,7,21,0.00
2013-11-26,82,77,72,75,72,68,91,85,77,30.05,29.82,13,4,19,0.08
2013-11-27,78,71,57,74,65,51,95,82,56,30.11,29.78,5,1,11,0.52
2013-11-28,73,63,48,59,53,45,88,71,54,30.24,30.11,9,2,13,0.00
2013-11-29,76,70,59,62,59,55,89,70,59,30.27,30.19,13,2,16,0.00
2013-11-30,76,70,61,69,63,59,92,78,65,30.21,30.10,11,2,18,0.15
2013-12-1,79,69,62,70,65,59,95,88,73,30.10,29.94,10,1,12,0.24
2013-12-2,74,67,60,68,64,58,96,89,70,29.93,29.82,3,0,5,0.02
2013-12-3,77,69,59,65,62,57,95,82,57,30.00,29.90,3,0,7,0.00
2013-12-4,82,72,63,70,65,61,94,82,63,30.09,29.98,3,0,11,0.00
2013-12-5,82,74,64,72,68,62,94,82,71,30.16,30.07,9,2,14,0.00
2013-12-6,81,76,71,71,69,66,86,78,69,30.18,30.09,7,2,14,0.00
2013-12-7,81,73,66,73,68,64,94,85,70,30.21,30.13,8,1,10,0.02
2013-12-8,81,77,73,71,69,67,88,76,64,30.20,30.12,8,3,15,0.00
2013-12-9,82,77,72,71,69,66,84,75,63,30.19,30.10,11,3,14,0.00
2013-12-10,83,77,71,73,71,69,91,81,69,30.16,30.07,5,1,10,0.00
2013-12-11,81,74,68,74,70,66,95,86,69,30.20,30.11,9,1,10,0.00
2013-12-12,79,72,68,71,66,60,95,83,68,30.22,30.13,6,1,16,0.05
2013-12-13,76,73,70,68,63,58,82,72,66,30.20,30.09,11,4,17,0.00
2013-12-14,80,77,73,73,71,68,88,81,75,30.11,29.99,11,3,15,0.00
2013-12-15,84,76,71,76,71,67,92,85,72,30.05,29.93,7,1,12,0.00
2013-12-16,76,68,61,67,61,58,88,79,64,30.15,30.03,5,1,11,0.00
2013-12-17,76,66,58,65,59,56,92,78,60,30.18,30.10,10,1,12,0.00
2013-12-18,76,66,59,59,57,56,92,76,54,30.24,30.14,10,1,11,0.00
2013-12-19,76,69,57,63,59,54,91,73,59,30.24,30.15,10,3,14,0.00
2013-12-20,79,76,72,70,67,62,79,74,69,30.19,30.10,9,4,15,0.00
2013-12-21,81,78,76,74,71,69,85,81,75,30.14,30.06,14,4,16,0.00
2013-12-22,82,78,77,73,72,71,86,81,72,30.16,30.07,10,4,16,0.00
2013-12-23,83,77,71,74,72,68,91,83,72,30.17,30.11,11,2,14,0.00
2013-12-24,84,72,66,73,67,61,95,83,64,30.17,30.08,6,1,14,0.00
2013-12-25,76,73,70,66,65,63,83,77,70,30.17,30.10,12,4,15,0.00
2013-12-26,77,75,72,70,69,67,84,81,78,30.16,30.06,10,3,12,0.01
2013-12-27,79,76,72,71,69,68,87,81,75,30.19,30.09,9,3,13,0.00
2013-12-28,78,76,73,72,70,68,90,83,78,30.17,30.03,11,5,16,0.06
2013-12-29,82,77,74,74,73,71,92,85,76,30.03,29.92,12,2,20,0.00
2013-12-30,79,72,69,72,69,65,95,88,76,30.14,29.98,3,0,6,0.00
2013-12-31,77,72,67,67,64,62,86,76,64,30.22,30.10,9,2,15,0.00
2014-1-1,80,76,72,73,70,64,88,82,73,30.19,30.04,10,4,14,0.00
2014-1-2,86,77,67,72,68,65,93,77,53,30.03,29.86,7,1,16,0.00